Time;durP1;ratioP1;P1;durP2;ratioP2;P2;SDS_P1;SDS_P2;PMS_P1;PMS_P2;Temp;Humidity;BMP_temperature;BMP_pressure;BME280_temperature;BME280_humidity;BME280_pressure;Samples;Min_cycle;Max_cycle;Signal;HPM_P1;HPM_P2
2022/11/06 00:04:17;;;;;;;5.22;1.80;;;17.50;88.60;;;;;;10492204;28;20135;-24
2022/11/06 00:09:20;;;;;;;3.70;1.60;;;17.10;90.40;;;;;;10498449;28;20529;-24
2022/11/06 00:14:24;;;;;;;5.22;1.83;;;17.60;84.70;;;;;;10494254;28;20064;-25
2022/11/06 00:19:26;;;;;;;5.38;2.33;;;17.90;83.00;;;;;;10496310;28;20064;-22
2022/11/06 00:24:28;;;;;;;5.75;2.17;;;18.20;82.10;;;;;;10506068;28;20052;-24
2022/11/06 00:29:32;;;;;;;4.88;1.77;;;17.80;86.40;;;;;;10494675;28;20484;-24
2022/11/06 00:34:34;;;;;;;6.18;2.15;;;17.90;86.10;;;;;;10503547;28;20106;-25
2022/11/06 00:39:36;;;;;;;6.80;1.77;;;17.50;81.70;;;;;;10494050;28;20036;-24
2022/11/06 00:44:39;;;;;;;7.32;2.30;;;18.40;82.60;;;;;;10497172;28;20456;-24
2022/11/06 00:49:41;;;;;;;10.15;2.13;;;17.10;89.40;;;;;;10495329;28;20131;-25
2022/11/06 00:54:43;;;;;;;8.10;1.60;;;16.70;90.10;;;;;;10487334;28;20144;-27
2022/11/06 00:59:46;;;;;;;9.40;2.90;;;17.50;88.50;;;;;;10489331;28;20378;-26
2022/11/06 01:04:48;;;;;;;3.15;1.30;;;16.30;92.40;;;;;;10489858;28;20553;-24
2022/11/06 01:09:50;;;;;;;5.80;2.23;;;17.30;90.80;;;;;;10496529;28;20067;-25
2022/11/06 01:14:53;;;;;;;8.67;2.40;;;17.10;90.40;;;;;;10493349;28;20057;-24
2022/11/06 01:19:55;;;;;;;5.38;1.73;;;16.90;90.00;;;;;;10491452;28;20470;-24
2022/11/06 01:24:57;;;;;;;3.33;1.38;;;17.60;87.30;;;;;;10494735;28;20056;-25
2022/11/06 01:30:00;;;;;;;1.55;1.20;;;17.70;87.00;;;;;;10493776;28;20480;-25
2022/11/06 01:35:02;;;;;;;4.47;1.70;;;17.40;90.00;;;;;;10508858;28;20484;-25
2022/11/06 01:40:04;;;;;;;4.87;1.37;;;17.60;88.30;;;;;;10492248;28;20560;-25
2022/11/06 01:45:26;;;;;;;;;;;17.90;85.50;;;;;;10486619;28;20166;-25
2022/11/06 01:50:28;;;;;;;3.90;1.40;;;18.20;83.40;;;;;;10493398;28;19982;-24
2022/11/06 01:55:34;;;;;;;3.23;1.33;;;17.80;87.20;;;;;;10500845;28;20084;-23
2022/11/06 02:00:38;;;;;;;4.63;1.52;;;18.50;81.50;;;;;;10488766;28;20107;-24
2022/11/06 02:05:40;;;;;;;3.00;1.25;;;18.00;85.60;;;;;;10488583;28;20051;-25
2022/11/06 02:10:43;;;;;;;6.90;1.75;;;17.90;86.50;;;;;;10487047;28;20056;-25
2022/11/06 02:15:51;;;;;;;4.57;1.70;;;17.30;90.00;;;;;;10487868;28;20095;-25
2022/11/06 02:21:09;;;;;;;3.78;1.33;;;17.70;83.80;;;;;;10488492;28;20067;-25
2022/11/06 02:26:29;;;;;;;6.05;1.75;;;17.50;87.20;;;;;;10490754;28;20052;-25
2022/11/06 02:31:35;;;;;;;10.40;1.70;;;18.00;81.90;;;;;;10489476;28;20041;-25
2022/11/06 02:36:40;;;;;;;5.07;1.88;;;17.70;85.60;;;;;;10485269;28;20143;-26
2022/11/06 02:41:46;;;;;;;7.90;2.45;;;16.90;91.00;;;;;;10489693;28;20136;-25
2022/11/06 02:46:52;;;;;;;2.72;1.38;;;17.80;85.30;;;;;;10489715;28;20489;-25
2022/11/06 02:51:56;;;;;;;3.53;1.80;;;18.50;81.70;;;;;;10488821;28;20694;-25
2022/11/06 02:57:04;;;;;;;2.80;1.42;;;17.60;88.20;;;;;;10497298;28;20836;-24
2022/11/06 03:02:10;;;;;;;7.07;1.92;;;18.10;84.10;;;;;;10488133;28;20381;-24
2022/11/06 03:07:18;;;;;;;3.65;1.45;;;17.40;88.40;;;;;;10485694;28;20056;-25
2022/11/06 03:12:25;;;;;;;9.38;2.88;;;16.80;91.60;;;;;;10487014;28;20546;-25
2022/11/06 03:17:40;;;;;;;3.95;2.17;;;15.60;92.80;;;;;;10500339;28;20052;-25
2022/11/06 03:22:49;;;;;;;3.40;1.83;;;16.20;93.90;;;;;;10508614;28;20060;-26
2022/11/06 03:28:01;;;;;;;7.40;2.15;;;16.90;90.90;;;;;;10487121;28;20126;-24
2022/11/06 03:33:10;;;;;;;4.25;2.00;;;16.40;91.00;;;;;;10500423;28;20045;-26
2022/11/06 03:38:18;;;;;;;9.75;2.13;;;16.60;92.20;;;;;;10495444;28;20082;-25
2022/11/06 03:43:26;;;;;;;6.97;2.40;;;17.40;89.60;;;;;;10498552;28;20382;-25
2022/11/06 03:48:33;;;;;;;4.30;1.58;;;16.80;90.80;;;;;;10495697;28;20717;-23
2022/11/06 03:53:40;;;;;;;8.10;1.90;;;17.30;90.20;;;;;;10488484;28;20045;-25
2022/11/06 03:58:46;;;;;;;12.63;2.75;;;17.00;88.40;;;;;;10498278;28;20071;-25
2022/11/06 04:03:54;;;;;;;9.30;2.50;;;16.60;91.60;;;;;;10498538;28;20048;-25
2022/11/06 04:14:26;;;;;;;2.38;1.58;;;17.20;90.40;;;;;;10492635;28;20084;-25
2022/11/06 04:19:30;;;;;;;5.55;2.55;;;17.20;90.70;;;;;;10500431;28;20092;-25
2022/11/06 04:30:08;;;;;;;4.20;1.75;;;17.00;90.40;;;;;;10490817;28;20052;-26
2022/11/06 04:35:20;;;;;;;2.03;1.58;;;17.70;87.30;;;;;;10496115;28;20090;-25
2022/11/06 04:40:27;;;;;;;3.10;1.75;;;18.00;85.90;;;;;;10485345;28;20493;-25
2022/11/06 04:45:33;;;;;;;2.60;1.40;;;17.60;88.50;;;;;;10496934;28;20095;-24
2022/11/06 04:50:42;;;;;;;5.00;1.92;;;17.80;86.40;;;;;;10489536;28;20084;-23
2022/11/06 04:55:49;;;;;;;2.42;1.70;;;18.50;81.10;;;;;;10491505;28;20078;-24
2022/11/06 05:00:51;;;;;;;4.13;1.42;;;17.90;85.10;;;;;;10505598;28;20481;-26
2022/11/06 05:05:54;;;;;;;4.22;1.63;;;18.20;83.90;;;;;;10496435;28;20106;-24
2022/11/06 05:10:56;;;;;;;2.90;1.20;;;18.30;83.50;;;;;;10498762;28;20437;-23
2022/11/06 05:16:00;;;;;;;2.33;1.00;;;18.30;82.80;;;;;;10494747;28;20497;-25
2022/11/06 05:26:24;;;;;;;6.63;2.20;;;18.50;80.70;;;;;;10495783;28;20139;-25
2022/11/06 05:31:26;;;;;;;3.00;1.40;;;18.30;81.10;;;;;;10491700;28;20051;-24
2022/11/06 05:36:29;;;;;;;;;;;18.40;82.60;;;;;;10493833;28;20063;-24
2022/11/06 05:41:31;;;;;;;4.82;1.95;;;18.80;78.00;;;;;;10493842;28;20288;-25
2022/11/06 05:46:33;;;;;;;3.47;1.75;;;18.00;82.60;;;;;;10496367;28;20473;-26
2022/11/06 05:51:36;;;;;;;2.88;1.35;;;18.20;82.90;;;;;;10493748;28;20037;-25
2022/11/06 05:56:38;;;;;;;2.00;1.20;;;18.70;80.10;;;;;;10492672;28;20570;-24
2022/11/06 06:01:40;;;;;;;1.38;1.25;;;18.70;79.70;;;;;;10493703;28;20079;-25
2022/11/06 06:06:44;;;;;;;2.50;1.08;;;18.60;80.70;;;;;;10483276;28;20048;-25
2022/11/06 06:11:46;;;;;;;3.00;1.23;;;18.80;78.00;;;;;;10494707;28;20078;-26
2022/11/06 06:16:48;;;;;;;3.03;1.17;;;18.70;79.60;;;;;;10493866;28;20137;-24
2022/11/06 06:21:52;;;;;;;5.28;1.90;;;19.00;77.80;;;;;;10493233;28;20066;-23
2022/11/06 06:26:54;;;;;;;3.25;1.30;;;18.60;80.40;;;;;;10502677;28;20464;-25
2022/11/06 06:31:55;;;;;;;2.35;1.17;;;18.40;82.60;;;;;;10488573;28;20098;-28
2022/11/06 06:36:59;;;;;;;2.10;1.20;;;19.00;78.80;;;;;;10487480;28;20056;-25
2022/11/06 06:42:00;;;;;;;4.30;1.27;;;18.90;79.20;;;;;;10486652;28;20044;-25
2022/11/06 06:47:03;;;;;;;2.58;0.90;;;18.80;80.00;;;;;;10492833;28;20102;-25
2022/11/06 06:52:06;;;;;;;1.98;0.70;;;19.10;78.70;;;;;;10491471;28;20079;-25
2022/11/06 06:57:08;;;;;;;3.78;1.15;;;19.10;78.80;;;;;;10488205;28;20048;-26
2022/11/06 07:15:31;;;;;;;3.60;1.05;;;19.10;78.10;;;;;;10508168;27;20137;-24
2022/11/06 07:20:33;;;;;;;1.60;0.80;;;19.30;78.40;;;;;;10493966;28;20045;-25
2022/11/06 07:25:36;;;;;;;1.88;1.10;;;19.40;77.60;;;;;;10479831;28;20095;-23
2022/11/06 07:30:39;;;;;;;;;;;18.70;78.40;;;;;;10479942;28;20131;-25
2022/11/06 07:35:41;;;;;;;3.72;1.25;;;18.60;82.20;;;;;;10483020;28;19974;-26
2022/11/06 07:40:43;;;;;;;4.40;1.00;;;18.90;79.00;;;;;;10470130;28;20486;-29
2022/11/06 07:45:46;;;;;;;6.65;1.80;;;18.30;85.60;;;;;;10484588;28;20040;-25
2022/11/06 07:50:48;;;;;;;2.13;0.80;;;18.30;85.80;;;;;;10481758;28;20044;-24
2022/11/06 07:55:50;;;;;;;6.00;2.05;;;18.80;81.30;;;;;;10481825;28;20041;-24
2022/11/06 08:00:55;;;;;;;2.35;0.90;;;18.00;87.40;;;;;;10484938;28;20461;-25
2022/11/06 08:05:57;;;;;;;3.15;0.88;;;18.60;87.10;;;;;;10478838;28;20465;-25
2022/11/06 08:11:02;;;;;;;4.53;1.15;;;18.80;84.10;;;;;;10478425;28;20052;-25
2022/11/06 08:16:06;;;;;;;2.42;0.80;;;18.50;87.60;;;;;;10492833;28;20355;-25
2022/11/06 08:21:08;;;;;;;2.78;0.68;;;19.20;83.30;;;;;;10484157;28;20104;-24
2022/11/06 08:26:11;;;;;;;2.92;1.25;;;19.40;81.30;;;;;;10466829;28;20136;-26
2022/11/06 08:31:14;;;;;;;7.93;2.13;;;19.30;81.90;;;;;;10439838;28;20545;-25
2022/11/06 08:36:16;;;;;;;1.75;0.73;;;19.00;83.30;;;;;;10456695;28;20486;-26
2022/11/06 08:41:18;;;;;;;2.47;0.90;;;19.30;82.70;;;;;;10445407;28;20098;-25
2022/11/06 08:46:21;;;;;;;6.75;1.20;;;19.50;81.00;;;;;;10454496;28;20065;-26
2022/11/06 08:51:24;;;;;;;4.95;1.10;;;19.20;83.30;;;;;;10443532;28;20148;-25
2022/11/06 08:56:26;;;;;;;4.38;1.42;;;19.20;82.50;;;;;;10452639;28;20045;-26
2022/11/06 09:01:30;;;;;;;2.33;1.08;;;18.90;83.20;;;;;;10440355;28;20053;-25
2022/11/06 09:06:33;;;;;;;5.35;1.13;;;19.00;84.40;;;;;;10440976;28;20456;-25
2022/11/06 09:11:35;;;;;;;4.43;1.92;;;18.30;87.50;;;;;;10451128;28;20444;-25
2022/11/06 09:16:38;;;;;;;4.35;1.08;;;18.60;86.30;;;;;;10456264;28;20064;-26
2022/11/06 09:21:40;;;;;;;6.38;1.60;;;19.10;84.30;;;;;;10452602;28;20140;-25
2022/11/06 09:26:42;;;;;;;3.13;1.15;;;18.60;83.80;;;;;;10471117;28;20132;-27
2022/11/06 09:31:46;;;;;;;2.20;0.98;;;19.30;83.30;;;;;;10453044;28;20084;-25
2022/11/06 09:36:48;;;;;;;9.45;1.63;;;19.20;84.30;;;;;;10453117;28;20052;-25
2022/11/06 09:41:56;;;;;;;2.03;0.80;;;19.30;83.00;;;;;;10452009;28;20077;-24
2022/11/06 09:47:03;;;;;;;1.98;0.95;;;19.50;82.50;;;;;;10456884;28;20094;-24
2022/11/06 09:52:10;;;;;;;4.57;1.10;;;19.10;79.80;;;;;;10440506;28;20057;-24
2022/11/06 09:57:19;;;;;;;3.45;0.90;;;19.30;83.30;;;;;;10429781;28;20119;-24
2022/11/06 10:02:30;;;;;;;5.47;1.33;;;19.50;82.90;;;;;;10443699;28;20067;-25
2022/11/06 10:07:35;;;;;;;3.25;1.10;;;19.70;81.50;;;;;;10439815;28;20047;-25
2022/11/06 10:12:51;;;;;;;3.25;1.00;;;19.10;81.50;;;;;;10455888;28;20725;-25
2022/11/06 10:18:03;;;;;;;2.78;1.15;;;19.70;82.90;;;;;;10457444;28;20470;-25
2022/11/06 10:23:12;;;;;;;4.43;1.00;;;19.60;81.90;;;;;;10460665;28;20605;-25
2022/11/06 10:28:34;;;;;;;4.05;1.10;;;19.80;81.00;;;;;;10460447;28;20068;-25
2022/11/06 10:33:51;;;;;;;4.37;1.27;;;19.60;81.30;;;;;;10449471;28;20140;-24
2022/11/06 10:38:55;;;;;;;4.20;1.30;;;18.90;84.30;;;;;;10454336;28;20056;-24
2022/11/06 10:44:01;;;;;;;2.55;0.90;;;19.60;82.30;;;;;;10457959;28;20038;-25
2022/11/06 10:49:11;;;;;;;4.07;1.27;;;20.00;79.80;;;;;;10430913;28;20389;-27
2022/11/06 10:54:25;;;;;;;7.65;1.15;;;19.40;83.00;;;;;;10443494;28;20474;-25
2022/11/06 10:59:28;;;;;;;7.20;1.23;;;19.20;84.70;;;;;;10445719;28;20072;-24
2022/11/06 11:04:32;;;;;;;2.90;1.13;;;19.60;83.20;;;;;;10451093;28;20454;-25
2022/11/06 11:09:34;;;;;;;9.35;3.03;;;19.50;83.60;;;;;;10453694;28;20060;-25
2022/11/06 11:14:36;;;;;;;9.38;1.45;;;19.40;83.30;;;;;;10457527;28;20134;-25
2022/11/06 11:19:42;;;;;;;3.28;1.30;;;19.40;83.60;;;;;;10453893;28;20539;-25
2022/11/06 11:24:59;;;;;;;4.40;1.35;;;18.80;88.30;;;;;;10457130;28;20052;-26
2022/11/06 11:30:03;;;;;;;6.28;1.50;;;19.50;83.60;;;;;;10453253;28;20045;-24
2022/11/06 11:35:12;;;;;;;10.90;1.20;;;19.80;81.30;;;;;;10471144;28;20060;-26
2022/11/06 11:40:31;;;;;;;2.95;0.85;;;19.30;83.40;;;;;;10451343;28;20132;-25
2022/11/06 11:45:33;;;;;;;2.83;1.15;;;19.30;85.40;;;;;;10444159;28;20057;-25
2022/11/06 11:50:36;;;;;;;5.32;1.20;;;19.00;86.70;;;;;;10457199;28;20053;-25
2022/11/06 11:55:43;;;;;;;4.78;1.70;;;19.70;83.20;;;;;;10447028;28;20537;-26
2022/11/06 12:00:51;;;;;;;2.55;0.95;;;19.90;81.40;;;;;;10449948;28;20485;-25
2022/11/06 12:06:06;;;;;;;7.57;1.55;;;19.60;82.80;;;;;;10449709;28;20052;-27
2022/11/06 12:11:12;;;;;;;9.95;2.30;;;20.00;80.80;;;;;;10452753;28;20049;-25
2022/11/06 12:16:18;;;;;;;2.25;1.00;;;20.10;80.50;;;;;;10449357;28;20045;-25
2022/11/06 12:21:27;;;;;;;3.05;1.13;;;20.20;80.20;;;;;;10440045;28;20550;-24
2022/11/06 12:26:35;;;;;;;2.03;0.80;;;20.00;81.00;;;;;;10455013;28;20094;-25
2022/11/06 12:31:39;;;;;;;4.90;1.23;;;20.20;79.60;;;;;;10444490;28;20561;-25
2022/11/06 12:36:59;;;;;;;4.15;0.90;;;19.90;81.90;;;;;;10452733;28;20057;-25
2022/11/06 12:42:04;;;;;;;5.53;1.05;;;20.30;79.90;;;;;;10449702;28;20091;-26
2022/11/06 12:47:14;;;;;;;9.00;1.17;;;20.30;80.00;;;;;;10460161;28;20544;-25
2022/11/06 12:52:28;;;;;;;3.63;1.02;;;20.40;79.60;;;;;;10448346;28;20053;-25
2022/11/06 12:57:41;;;;;;;5.05;0.82;;;20.20;80.70;;;;;;10454087;28;20123;-25
2022/11/06 13:03:24;;;;;;;3.05;1.05;;;19.80;83.30;;;;;;10457047;28;20052;-24
2022/11/06 13:08:39;;;;;;;10.85;1.23;;;19.80;82.80;;;;;;10441307;28;20076;-25
2022/11/06 13:13:52;;;;;;;3.35;0.93;;;19.90;82.60;;;;;;10454307;28;20102;-26
2022/11/06 13:19:03;;;;;;;5.53;1.48;;;20.00;82.10;;;;;;10439152;28;20041;-25
2022/11/06 13:24:23;;;;;;;5.55;2.22;;;19.20;80.30;;;;;;10448590;28;20065;-25
2022/11/06 13:29:43;;;;;;;4.28;2.30;;;19.70;84.40;;;;;;10458086;28;20041;-24
2022/11/06 13:34:50;;;;;;;6.95;1.65;;;19.50;79.40;;;;;;10453885;28;20110;-24
2022/11/06 13:39:58;;;;;;;4.50;2.00;;;18.40;88.50;;;;;;10452152;28;20045;-25
2022/11/06 13:45:02;;;;;;;9.50;1.60;;;19.30;85.80;;;;;;10454269;28;20053;-26
2022/11/06 13:50:10;;;;;;;4.15;1.23;;;19.60;84.40;;;;;;10439308;28;20077;-26
2022/11/06 13:55:21;;;;;;;5.05;1.30;;;20.10;80.50;;;;;;10449470;28;20076;-25
2022/11/06 14:00:24;;;;;;;5.50;1.20;;;17.90;91.30;;;;;;10454688;28;20049;-26
2022/11/06 14:05:45;;;;;;;4.45;1.38;;;18.20;90.20;;;;;;10460017;28;20076;-25
2022/11/06 14:10:54;;;;;;;5.63;1.92;;;17.00;93.90;;;;;;10458630;28;20053;-24
2022/11/06 14:16:18;;;;;;;3.03;1.30;;;19.30;88.30;;;;;;10457161;28;20399;-26
2022/11/06 14:21:47;;;;;;;3.25;1.38;;;19.00;84.70;;;;;;10452061;28;20041;-23
2022/11/06 14:26:51;;;;;;;3.25;1.40;;;18.20;92.50;;;;;;10484051;28;20501;-26
2022/11/06 14:32:00;;;;;;;8.40;2.13;;;19.50;87.60;;;;;;10449888;28;20429;-26
2022/11/06 14:37:45;;;;;;;6.68;2.40;;;19.70;89.40;;;;;;10455437;28;20468;-25
2022/11/06 14:42:49;;;;;;;3.53;2.25;;;20.00;83.40;;;;;;10440752;28;20546;-25
2022/11/06 14:47:55;;;;;;;8.18;2.92;;;19.90;88.00;;;;;;10444011;28;20102;-25
2022/11/06 14:53:01;;;;;;;6.30;2.53;;;20.10;86.70;;;;;;10453341;28;20067;-25
2022/11/06 14:58:17;;;;;;;9.48;3.38;;;20.20;85.90;;;;;;10438468;28;20052;-24
2022/11/06 15:03:26;;;;;;;9.70;3.70;;;20.30;84.20;;;;;;10445428;28;20086;-26
2022/11/06 15:08:58;;;;;;;4.78;3.03;;;20.20;85.10;;;;;;10462095;28;20091;-27
2022/11/06 15:14:33;;;;;;;4.17;2.57;;;20.10;83.90;;;;;;10453398;28;20053;-26
2022/11/06 15:19:40;;;;;;;6.25;3.03;;;20.10;85.10;;;;;;10450902;28;20045;-25
2022/11/06 15:24:47;;;;;;;5.25;2.40;;;20.00;84.50;;;;;;10459599;28;20084;-25
2022/11/06 15:29:54;;;;;;;4.50;2.05;;;20.10;85.50;;;;;;10438495;28;20045;-26
2022/11/06 15:35:03;;;;;;;5.05;2.15;;;19.80;84.80;;;;;;10449914;28;20132;-25
2022/11/06 15:40:06;;;;;;;3.15;1.80;;;20.00;84.80;;;;;;10455732;28;20053;-26
2022/11/06 15:45:19;;;;;;;6.00;2.40;;;19.90;85.50;;;;;;10447637;28;20144;-26
2022/11/06 15:50:24;;;;;;;6.05;1.90;;;19.90;85.80;;;;;;10454234;28;20494;-26
2022/11/06 15:55:29;;;;;;;3.60;2.20;;;20.10;84.90;;;;;;10442149;28;20050;-25
2022/11/06 16:00:34;;;;;;;3.55;2.20;;;20.20;83.60;;;;;;10452889;28;20090;-26
2022/11/06 16:05:38;;;;;;;2.75;1.70;;;20.10;83.70;;;;;;10456459;28;20044;-25
2022/11/06 16:10:41;;;;;;;2.85;2.03;;;20.00;82.80;;;;;;10463262;28;20063;-28
2022/11/06 16:15:51;;;;;;;3.25;2.38;;;20.10;84.60;;;;;;10448391;28;20088;-26
2022/11/06 16:21:00;;;;;;;3.67;2.20;;;20.60;80.70;;;;;;10449915;28;20053;-27
2022/11/06 16:26:04;;;;;;;5.85;2.10;;;20.40;79.60;;;;;;10474607;28;20057;-24
2022/11/06 16:31:10;;;;;;;6.22;1.90;;;20.30;79.90;;;;;;10449638;28;20049;-26
2022/11/06 16:36:14;;;;;;;2.80;1.35;;;19.90;73.60;;;;;;10430729;28;20049;-27
2022/11/06 16:47:10;;;;;;;1.52;0.82;;;20.10;83.90;;;;;;10443304;28;20056;-25
2022/11/06 16:52:24;;;;;;;1.40;0.75;;;20.40;82.20;;;;;;10448009;28;20045;-26
2022/11/06 16:57:29;;;;;;;3.80;1.33;;;19.80;81.60;;;;;;10445313;28;20474;-26
2022/11/06 17:02:34;;;;;;;3.20;1.27;;;18.10;92.10;;;;;;10443205;28;20041;-25
2022/11/06 17:07:37;;;;;;;2.40;1.48;;;17.40;92.10;;;;;;10453955;28;20042;-23
2022/11/06 17:12:39;;;;;;;5.00;1.73;;;18.40;90.10;;;;;;10454132;28;20052;-26
2022/11/06 17:17:41;;;;;;;3.37;1.90;;;17.70;91.60;;;;;;10434193;28;20076;-25
2022/11/06 17:22:44;;;;;;;7.07;2.10;;;18.00;90.90;;;;;;10444274;28;20455;-25
2022/11/06 17:27:47;;;;;;;7.22;1.70;;;17.10;95.40;;;;;;10457433;28;20572;-26
2022/11/06 17:32:49;;;;;;;4.15;1.98;;;17.70;93.60;;;;;;10443108;28;20045;-26
2022/11/06 17:37:52;;;;;;;3.97;1.83;;;16.40;95.10;;;;;;10446855;28;20100;-26
2022/11/06 17:42:54;;;;;;;2.17;0.98;;;18.20;90.30;;;;;;10445138;28;20045;-25
2022/11/06 17:47:56;;;;;;;4.25;2.00;;;18.00;92.30;;;;;;10439468;28;20126;-24
2022/11/06 17:52:59;;;;;;;6.35;1.40;;;17.00;95.60;;;;;;10450565;28;20072;-25
2022/11/06 17:58:01;;;;;;;8.20;2.60;;;16.10;97.90;;;;;;10433654;28;20045;-24
2022/11/06 18:03:03;;;;;;;4.10;1.80;;;15.50;99.80;;;;;;10438837;28;20143;-29
2022/11/06 18:08:10;;;;;;;12.48;2.75;;;17.00;95.50;;;;;;10446559;28;20098;-26
2022/11/06 18:13:12;;;;;;;5.97;2.28;;;17.10;94.90;;;;;;10444455;28;20064;-25
2022/11/06 18:18:14;;;;;;;5.00;1.50;;;15.40;96.40;;;;;;10455063;28;20048;-25
2022/11/06 18:23:18;;;;;;;8.17;1.93;;;16.10;98.00;;;;;;10460306;28;20565;-26
2022/11/06 18:28:20;;;;;;;6.10;1.65;;;17.70;92.70;;;;;;10456265;28;20103;-25
2022/11/06 18:33:22;;;;;;;3.90;2.03;;;17.70;93.30;;;;;;10463007;28;20037;-26
2022/11/06 18:38:25;;;;;;;5.77;2.00;;;16.90;93.00;;;;;;10442579;28;20596;-25
2022/11/06 18:43:27;;;;;;;5.70;2.10;;;16.70;96.50;;;;;;10441494;28;20041;-24
2022/11/06 18:48:30;;;;;;;7.87;2.17;;;18.10;93.50;;;;;;10450372;28;20080;-24
2022/11/06 18:53:33;;;;;;;5.15;2.30;;;18.80;90.20;;;;;;10455106;28;20048;-24
2022/11/06 18:58:36;;;;;;;6.38;2.40;;;16.60;89.60;;;;;;10449842;28;20098;-25
2022/11/06 19:03:38;;;;;;;3.30;1.85;;;15.70;94.30;;;;;;10447244;28;20079;-25
2022/11/06 19:08:44;;;;;;;;;;;16.30;97.50;;;;;;10455685;28;20082;-25
2022/11/06 19:13:46;;;;;;;6.53;2.03;;;17.10;95.80;;;;;;10459462;28;20321;-24
2022/11/06 19:18:49;;;;;;;3.08;2.05;;;15.80;99.70;;;;;;10469702;28;20076;-26
2022/11/06 19:23:54;;;;;;;5.97;1.90;;;17.10;94.80;;;;;;10454641;28;20063;-24
2022/11/06 19:28:57;;;;;;;4.20;2.55;;;16.60;96.40;;;;;;10446424;28;20125;-24
2022/11/06 19:33:59;;;;;;;4.82;1.70;;;14.50;97.50;;;;;;10446505;28;20056;-24
2022/11/06 19:39:03;;;;;;;6.22;2.40;;;14.80;99.90;;;;;;10449996;28;20136;-23
2022/11/06 19:44:07;;;;;;;6.75;3.20;;;13.70;99.90;;;;;;10443647;28;20049;-25
2022/11/06 19:49:10;;;;;;;8.18;2.80;;;13.70;99.90;;;;;;10449231;28;20061;-24
2022/11/06 19:54:14;;;;;;;6.65;3.13;;;13.40;99.90;;;;;;10432861;28;20076;-26
2022/11/06 19:59:16;;;;;;;8.18;2.55;;;13.30;99.90;;;;;;10451596;28;20044;-26
2022/11/06 20:04:18;;;;;;;6.25;2.83;;;13.20;99.90;;;;;;10445399;28;20111;-26
2022/11/06 20:09:22;;;;;;;5.03;2.23;;;13.40;99.90;;;;;;10435059;28;20513;-23
2022/11/06 20:14:24;;;;;;;9.38;3.72;;;13.50;99.90;;;;;;10451092;28;20126;-24
2022/11/06 20:19:26;;;;;;;3.90;2.13;;;12.40;99.90;;;;;;10440754;28;20124;-23
2022/11/06 20:24:29;;;;;;;5.47;2.92;;;13.80;99.90;;;;;;10445562;28;20087;-24
2022/11/06 20:29:31;;;;;;;7.25;2.58;;;13.80;99.90;;;;;;10449399;28;20068;-28
2022/11/06 20:34:33;;;;;;;9.23;2.67;;;14.40;99.90;;;;;;10456670;28;20045;-24
2022/11/06 20:39:36;;;;;;;4.13;2.10;;;14.60;99.90;;;;;;10464889;28;20077;-25
2022/11/06 20:44:38;;;;;;;4.70;1.95;;;15.70;98.90;;;;;;10434479;28;20437;-24
2022/11/06 20:49:41;;;;;;;5.00;2.33;;;15.30;99.90;;;;;;10430012;28;20049;-24
2022/11/06 20:54:45;;;;;;;3.58;1.70;;;14.60;99.90;;;;;;10426375;28;20061;-25
2022/11/06 20:59:47;;;;;;;5.35;2.25;;;15.00;99.80;;;;;;10432167;28;20057;-24
2022/11/06 21:04:49;;;;;;;7.43;2.47;;;14.70;99.20;;;;;;10448106;28;20113;-25
2022/11/06 21:09:52;;;;;;;6.45;2.28;;;14.10;99.90;;;;;;10441350;28;20041;-23
2022/11/06 21:14:54;;;;;;;5.70;1.73;;;14.40;99.90;;;;;;10438613;28;20399;-25
2022/11/06 21:19:56;;;;;;;6.33;2.77;;;15.50;99.80;;;;;;10441020;28;20546;-24
2022/11/06 21:24:59;;;;;;;3.47;1.55;;;14.80;99.90;;;;;;10428355;28;20486;-25
2022/11/06 21:30:01;;;;;;;8.25;2.10;;;15.60;99.40;;;;;;10444546;28;20092;-24
2022/11/06 21:35:04;;;;;;;5.90;2.13;;;14.60;99.90;;;;;;10461507;28;20052;-25
2022/11/06 21:40:08;;;;;;;8.23;1.95;;;14.60;99.90;;;;;;10453356;28;20052;-24
2022/11/06 21:45:10;;;;;;;9.48;2.10;;;14.40;99.90;;;;;;10447334;28;20448;-24
2022/11/06 21:50:14;;;;;;;4.45;1.88;;;14.00;99.90;;;;;;10433267;28;20085;-24
2022/11/06 22:00:38;;;;;;;6.35;2.20;;;16.00;98.50;;;;;;10442196;28;20136;-25
2022/11/06 22:05:40;;;;;;;8.35;2.33;;;14.80;99.90;;;;;;10440347;28;20053;-24
2022/11/06 22:10:43;;;;;;;6.50;2.23;;;14.60;99.90;;;;;;10443171;28;20045;-24
2022/11/06 22:15:45;;;;;;;11.65;2.78;;;15.10;99.90;;;;;;10441158;28;20052;-24
2022/11/06 22:20:47;;;;;;;10.60;2.57;;;14.50;99.90;;;;;;10436307;28;20049;-25
2022/11/06 22:25:51;;;;;;;6.93;1.50;;;15.10;99.60;;;;;;10441431;28;20071;-22
2022/11/06 22:30:52;;;;;;;3.15;1.83;;;15.00;99.90;;;;;;10441382;28;20135;-23
2022/11/06 22:36:01;;;;;;;7.43;2.27;;;14.50;99.90;;;;;;10455092;28;20103;-24
2022/11/06 22:41:06;;;;;;;4.75;1.90;;;15.40;99.10;;;;;;10449973;28;20044;-24
2022/11/06 22:46:12;;;;;;;6.40;1.75;;;15.10;98.20;;;;;;10439199;28;20070;-26
2022/11/06 22:51:16;;;;;;;4.35;1.77;;;14.10;99.90;;;;;;10446869;28;20052;-24
2022/11/06 22:56:22;;;;;;;4.75;1.48;;;15.20;99.80;;;;;;10454286;28;20044;-25
2022/11/06 23:01:26;;;;;;;9.20;1.90;;;15.70;97.40;;;;;;10454031;28;20382;-26
2022/11/06 23:06:29;;;;;;;6.32;1.77;;;14.70;99.90;;;;;;10449857;28;20048;-27
2022/11/06 23:11:32;;;;;;;3.22;1.45;;;14.40;99.90;;;;;;10459358;28;20049;-24
2022/11/06 23:27:26;;;;;;;5.13;1.55;;;14.20;99.90;;;;;;10455857;28;20050;-25
2022/11/06 23:32:29;;;;;;;1.58;0.93;;;13.80;99.90;;;;;;10453158;28;20130;-25
2022/11/06 23:37:30;;;;;;;;;;;15.40;99.90;;;;;;10451001;28;20053;-25
2022/11/06 23:42:34;;;;;;;5.03;1.77;;;13.90;99.90;;;;;;10437655;28;19999;-25
2022/11/06 23:47:36;;;;;;;7.80;1.95;;;14.00;99.90;;;;;;10447181;28;20050;-23
2022/11/06 23:52:38;;;;;;;7.13;1.45;;;14.10;99.90;;;;;;10441996;28;20076;-25
2022/11/06 23:57:41;;;;;;;3.60;1.48;;;14.20;99.90;;;;;;10467145;28;20501;-25
